| time (UTC) | temp F | wind direction | speed MPH | gust MPH | rain 1hr in | rain 24hr in | rain mn in | humidity % | barometer mb |
| 20260509042523 | 46 | 5 | 1.0 | 4.0 | 0.04 | 0.07 | 0.02 | 92 | 1010.8 |
| 20260509041614 | 46 | 311 | 1.0 | 2.0 | 0.03 | 0.05 | 0.01 | 92 | 1010.7 |
| 20260509040625 | 47 | 124 | 1.0 | 3.0 | 0.02 | 0.05 | 0.00 | 91 | 1010.4 |
| 20260509035555 | 47 | 292 | 1.0 | 3.0 | 0.02 | 0.04 | 0.04 | 89 | 1010.6 |
| 20260509034546 | 47 | 312 | 2.0 | 4.0 | 0.01 | 0.03 | 0.03 | 87 | 1010.6 |
| 20260509033538 | 48 | 339 | 3.0 | 7.0 | 0.01 | 0.03 | 0.03 | 85 | 1010.8 |
| 20260509032525 | 48 | 311 | 3.0 | 4.0 | 0.01 | 0.03 | 0.03 | 84 | 1010.9 |
| 20260509031616 | 49 | 332 | 3.0 | 7.0 | 0.00 | 0.03 | 0.03 | 82 | 1010.8 |
| 20260509030626 | 49 | 324 | 5.0 | 9.0 | 0.00 | 0.02 | 0.02 | 80 | 1010.9 |
| 20260509025556 | 49 | 318 | 5.0 | 8.0 | 0.00 | 0.02 | 0.02 | 77 | 1011.0 |
| 20260509024546 | 50 | 302 | 4.0 | 10.0 | 0.00 | 0.02 | 0.02 | 76 | 1011.0 |
| 20260509023536 | 50 | 319 | 5.0 | 9.0 | 0.00 | 0.02 | 0.02 | 77 | 1010.8 |
| 20260509022529 | 50 | 323 | 6.0 | 11.0 | 0.00 | 0.03 | 0.02 | 77 | 1010.7 |
| 20260509021518 | 50 | 323 | 5.0 | 10.0 | 0.00 | 0.03 | 0.02 | 77 | 1010.7 |
| 20260509020607 | 50 | 325 | 3.0 | 7.0 | 0.00 | 0.05 | 0.02 | 77 | 1010.7 |
| 20260509015557 | 50 | 357 | 4.0 | 7.0 | 0.00 | 0.06 | 0.02 | 77 | 1010.5 |
| 20260509014556 | 50 | 340 | 6.0 | 12.0 | 0.00 | 0.07 | 0.02 | 76 | 1010.4 |
| 20260509013546 | 50 | 331 | 4.0 | 7.0 | 0.00 | 0.08 | 0.02 | 75 | 1010.2 |
| 20260509012527 | 50 | 350 | 3.0 | 6.0 | 0.00 | 0.09 | 0.02 | 75 | 1010.0 |
| 20260509011520 | 51 | 136 | 1.0 | 3.0 | 0.00 | 0.09 | 0.02 | 71 | 1009.8 |
| 20260509010608 | 52 | 342 | 2.0 | 6.0 | 0.00 | 0.09 | 0.02 | 69 | 1009.8 |
| 20260509005558 | 51 | 352 | 3.0 | 5.0 | 0.00 | 0.09 | 0.02 | 69 | 1009.7 |
| 20260509004611 | 51 | 305 | 4.0 | 6.0 | 0.00 | 0.09 | 0.02 | 71 | 1009.5 |
| 20260509003538 | 52 | 313 | 3.0 | 4.0 | 0.00 | 0.09 | 0.02 | 69 | 1009.5 |
| 20260509002528 | 52 | 311 | 2.0 | 5.0 | 0.00 | 0.09 | 0.02 | 69 | 1009.4 |
| 20260509001538 | 52 | 49 | 1.0 | 4.0 | 0.00 | 0.09 | 0.02 | 68 | 1009.4 |
| 20260509000629 | 52 | 323 | 4.0 | 9.0 | 0.00 | 0.09 | 0.02 | 68 | 1009.5 |
| 20260508235602 | 52 | 342 | 3.0 | 5.0 | 0.00 | 0.09 | 0.02 | 66 | 1009.4 |
| 20260508234549 | 53 | 345 | 2.0 | 5.0 | 0.00 | 0.09 | 0.02 | 66 | 1009.2 |
| 20260508233539 | 53 | 353 | 2.0 | 5.0 | 0.00 | 0.09 | 0.02 | 61 | 1008.9 |
| 20260508232529 | 54 | 15 | 4.0 | 7.0 | 0.00 | 0.09 | 0.02 | 58 | 1008.9 |
| 20260508231519 | 54 | 135 | 1.0 | 5.0 | 0.00 | 0.09 | 0.02 | 56 | 1008.8 |
| 20260508230613 | 55 | 115 | 1.0 | 2.0 | 0.00 | 0.09 | 0.02 | 55 | 1008.5 |
| 20260508225601 | 55 | 120 | 0.0 | 2.0 | 0.00 | 0.09 | 0.02 | 59 | 1008.6 |
| 20260508224550 | 55 | 0.0 | 1.0 | 0.00 | 0.09 | 0.02 | 57 | 1008.5 | |
| 20260508223540 | 56 | 0.0 | 1.0 | 0.00 | 0.09 | 0.02 | 55 | 1008.7 | |
| 20260508222533 | 56 | 249 | 1.0 | 6.0 | 0.00 | 0.09 | 0.02 | 48 | 1008.6 |
| 20260508221520 | 57 | 244 | 3.0 | 5.0 | 0.00 | 0.09 | 0.02 | 43 | 1008.7 |
| 20260508220611 | 57 | 250 | 2.0 | 5.0 | 0.00 | 0.09 | 0.02 | 43 | 1008.6 |
| 20260508215601 | 56 | 312 | 3.0 | 6.0 | 0.00 | 0.09 | 0.02 | 43 | 1008.8 |
| 20260508214554 | 56 | 256 | 4.0 | 8.0 | 0.00 | 0.09 | 0.02 | 42 | 1008.6 |
| 20260508213601 | 57 | 297 | 4.0 | 9.0 | 0.00 | 0.09 | 0.02 | 41 | 1008.5 |
| 20260508212531 | 56 | 278 | 6.0 | 10.0 | 0.00 | 0.09 | 0.02 | 44 | 1008.6 |
| 20260508211521 | 55 | 286 | 4.0 | 10.0 | 0.00 | 0.09 | 0.02 | 45 | 1008.7 |
| 20260508210632 | 55 | 283 | 7.0 | 17.0 | 0.00 | 0.09 | 0.02 | 43 | 1008.8 |
| 20260508205602 | 55 | 288 | 5.0 | 13.0 | 0.00 | 0.09 | 0.02 | 43 | 1008.8 |
| 20260508204552 | 56 | 303 | 7.0 | 13.0 | 0.00 | 0.09 | 0.02 | 43 | 1008.8 |
| 20260508203542 | 57 | 308 | 5.0 | 12.0 | 0.00 | 0.09 | 0.02 | 42 | 1008.9 |
| 20260508202532 | 57 | 291 | 13.0 | 21.0 | 0.00 | 0.09 | 0.02 | 41 | 1008.9 |
| 20260508201542 | 56 | 283 | 11.0 | 21.0 | 0.00 | 0.09 | 0.02 | 43 | 1009.1 |
| 20260508200633 | 56 | 293 | 11.0 | 23.0 | 0.00 | 0.09 | 0.02 | 44 | 1009.2 |
| 20260508195603 | 54 | 282 | 8.0 | 15.0 | 0.00 | 0.09 | 0.02 | 47 | 1009.4 |
| 20260508194553 | 54 | 293 | 7.0 | 13.0 | 0.00 | 0.09 | 0.02 | 47 | 1009.4 |
| 20260508193542 | 54 | 289 | 11.0 | 17.0 | 0.00 | 0.09 | 0.02 | 48 | 1009.7 |
| 20260508192532 | 54 | 317 | 7.0 | 18.0 | 0.00 | 0.09 | 0.02 | 48 | 1009.9 |
| 20260508191522 | 53 | 261 | 2.0 | 5.0 | 0.00 | 0.09 | 0.02 | 51 | 1009.8 |
| 20260508190614 | 52 | 300 | 5.0 | 11.0 | 0.00 | 0.09 | 0.02 | 52 | 1010.2 |
| 20260508185624 | 53 | 247 | 4.0 | 9.0 | 0.00 | 0.09 | 0.02 | 52 | 1010.1 |
| 20260508184554 | 52 | 320 | 3.0 | 8.0 | 0.00 | 0.09 | 0.02 | 56 | 1010.4 |
| 20260508183543 | 51 | 272 | 2.0 | 6.0 | 0.00 | 0.09 | 0.02 | 56 | 1010.5 |
| 20260508182533 | 51 | 297 | 3.0 | 7.0 | 0.00 | 0.09 | 0.02 | 57 | 1010.5 |
| 20260508181523 | 50 | 265 | 5.0 | 9.0 | 0.00 | 0.09 | 0.02 | 59 | 1010.5 |
| 20260508180615 | 50 | 288 | 5.0 | 9.0 | 0.00 | 0.09 | 0.02 | 58 | 1010.7 |
| 20260508175607 | 50 | 292 | 3.0 | 7.0 | 0.00 | 0.09 | 0.02 | 59 | 1010.6 |
| 20260508174555 | 50 | 292 | 5.0 | 11.0 | 0.00 | 0.09 | 0.02 | 58 | 1010.7 |
| 20260508173545 | 50 | 302 | 5.0 | 9.0 | 0.00 | 0.09 | 0.02 | 59 | 1010.8 |
| 20260508172554 | 49 | 293 | 5.0 | 9.0 | 0.00 | 0.09 | 0.02 | 60 | 1011.0 |
| 20260508171527 | 49 | 291 | 5.0 | 8.0 | 0.00 | 0.09 | 0.02 | 60 | 1011.0 |
| 20260508170616 | 50 | 245 | 2.0 | 5.0 | 0.01 | 0.09 | 0.02 | 62 | 1011.1 |
| 20260508165626 | 48 | 248 | 2.0 | 6.0 | 0.02 | 0.09 | 0.02 | 67 | 1011.2 |
| 20260508164556 | 48 | 257 | 2.0 | 5.0 | 0.02 | 0.09 | 0.02 | 66 | 1011.4 |
| 20260508163546 | 48 | 260 | 3.0 | 6.0 | 0.02 | 0.09 | 0.02 | 68 | 1011.4 |
| 20260508162536 | 46 | 302 | 2.0 | 3.0 | 0.02 | 0.09 | 0.02 | 74 | 1011.6 |
| 20260508161546 | 44 | 297 | 2.0 | 5.0 | 0.02 | 0.09 | 0.02 | 75 | 1011.7 |
| 20260508160516 | 45 | 268 | 4.0 | 7.0 | 0.00 | 0.08 | 0.01 | 71 | 1011.8 |
| 20260508155607 | 46 | 325 | 4.0 | 9.0 | 0.00 | 0.08 | 0.00 | 69 | 1011.5 |
| 20260508154557 | 47 | 315 | 5.0 | 10.0 | 0.00 | 0.08 | 0.00 | 63 | 1011.4 |
| 20260508153546 | 47 | 279 | 7.0 | 13.0 | 0.00 | 0.08 | 0.00 | 61 | 1011.1 |
| 20260508152557 | 48 | 280 | 9.0 | 17.0 | 0.00 | 0.08 | 0.00 | 60 | 1011.1 |
| 20260508151527 | 47 | 297 | 9.0 | 15.0 | 0.00 | 0.08 | 0.00 | 61 | 1011.0 |
| 20260508150517 | 47 | 301 | 10.0 | 16.0 | 0.00 | 0.08 | 0.00 | 62 | 1011.2 |
| 20260508145628 | 46 | 295 | 6.0 | 12.0 | 0.00 | 0.08 | 0.00 | 67 | 1011.1 |
| 20260508144618 | 46 | 274 | 6.0 | 14.0 | 0.00 | 0.08 | 0.00 | 69 | 1011.1 |
| 20260508143551 | 46 | 278 | 8.0 | 15.0 | 0.00 | 0.08 | 0.00 | 69 | 1010.9 |
| 20260508142541 | 46 | 284 | 4.0 | 10.0 | 0.00 | 0.07 | 0.00 | 71 | 1010.7 |
| 20260508141547 | 46 | 291 | 6.0 | 11.0 | 0.00 | 0.07 | 0.00 | 71 | 1010.6 |
| 20260508140518 | 46 | 298 | 4.0 | 11.0 | 0.00 | 0.07 | 0.00 | 72 | 1010.6 |
| 20260508135609 | 45 | 257 | 6.0 | 13.0 | 0.00 | 0.07 | 0.00 | 75 | 1010.8 |
| 20260508134559 | 44 | 288 | 4.0 | 14.0 | 0.00 | 0.07 | 0.00 | 77 | 1010.9 |
| 20260508133552 | 44 | 300 | 8.0 | 13.0 | 0.00 | 0.07 | 0.00 | 79 | 1010.9 |
| 20260508132720 | 43 | 305 | 6.0 | 11.0 | 0.00 | 0.07 | 0.00 | 82 | 1010.8 |
| 20260508131529 | 42 | 304 | 5.0 | 12.0 | 0.00 | 0.07 | 0.00 | 87 | 1010.7 |
| 20260508130539 | 41 | 336 | 7.0 | 14.0 | 0.00 | 0.07 | 0.00 | 97 | 1011.0 |
| 20260508125610 | 40 | 333 | 5.0 | 11.0 | 0.00 | 0.07 | 0.00 | 97 | 1010.8 |
| 20260508124600 | 39 | 330 | 4.0 | 8.0 | 0.00 | 0.07 | 0.00 | 96 | 1010.8 |
| 20260508123630 | 37 | 264 | 1.0 | 4.0 | 0.00 | 0.07 | 0.00 | 97 | 1010.8 |
| 20260508122540 | 37 | 330 | 2.0 | 6.0 | 0.00 | 0.07 | 0.00 | 97 | 1010.8 |
| 20260508121549 | 36 | 357 | 2.0 | 4.0 | 0.00 | 0.07 | 0.00 | 97 | 1010.9 |
| 20260508120520 | 36 | 282 | 1.0 | 4.0 | 0.00 | 0.07 | 0.00 | 97 | 1011.1 |
| 20260508115611 | 35 | 317 | 3.0 | 4.0 | 0.00 | 0.07 | 0.00 | 97 | 1011.1 |
| 20260508114621 | 35 | 347 | 3.0 | 5.0 | 0.00 | 0.07 | 0.00 | 97 | 1011.3 |
| 20260508113551 | 35 | 313 | 3.0 | 6.0 | 0.00 | 0.07 | 0.00 | 97 | 1011.4 |
| 20260508112541 | 35 | 312 | 4.0 | 6.0 | 0.00 | 0.07 | 0.00 | 97 | 1011.2 |
| 20260508111531 | 34 | 311 | 2.0 | 5.0 | 0.00 | 0.07 | 0.00 | 97 | 1011.1 |
| 20260508110521 | 34 | 285 | 1.0 | 4.0 | 0.00 | 0.07 | 0.00 | 96 | 1011.1 |
| 20260508105612 | 33 | 212 | 2.0 | 3.0 | 0.00 | 0.07 | 0.00 | 97 | 1011.0 |
| 20260508104622 | 33 | 328 | 1.0 | 2.0 | 0.00 | 0.07 | 0.00 | 97 | 1011.0 |
| 20260508103552 | 33 | 249 | 2.0 | 3.0 | 0.00 | 0.07 | 0.00 | 97 | 1011.1 |
| 20260508102542 | 33 | 263 | 3.0 | 5.0 | 0.00 | 0.07 | 0.00 | 97 | 1011.0 |
| 20260508101532 | 33 | 254 | 3.0 | 5.0 | 0.00 | 0.07 | 0.00 | 96 | 1010.9 |
| 20260508100522 | 32 | 245 | 2.0 | 4.0 | 0.00 | 0.07 | 0.00 | 96 | 1010.9 |
| 20260508095613 | 32 | 242 | 2.0 | 5.0 | 0.00 | 0.07 | 0.00 | 97 | 1010.9 |
| 20260508094603 | 32 | 223 | 2.0 | 4.0 | 0.00 | 0.07 | 0.00 | 97 | 1010.8 |
| 20260508093556 | 32 | 261 | 2.0 | 4.0 | 0.00 | 0.07 | 0.00 | 97 | 1010.9 |
| 20260508092543 | 32 | 227 | 2.0 | 4.0 | 0.00 | 0.07 | 0.00 | 97 | 1010.9 |
| 20260508091533 | 33 | 113 | 2.0 | 5.0 | 0.00 | 0.07 | 0.00 | 97 | 1010.9 |
| 20260508090523 | 33 | 161 | 2.0 | 4.0 | 0.00 | 0.07 | 0.00 | 97 | 1011.1 |
| 20260508085614 | 32 | 0.0 | 3.0 | 0.00 | 0.07 | 0.00 | 97 | 1011.2 | |
| 20260508084604 | 33 | 225 | 3.0 | 4.0 | 0.00 | 0.07 | 0.00 | 97 | 1011.0 |
| 20260508083557 | 33 | 76 | 1.0 | 4.0 | 0.00 | 0.07 | 0.00 | 96 | 1010.9 |
| 20260508082544 | 33 | 261 | 3.0 | 4.0 | 0.00 | 0.07 | 0.00 | 97 | 1011.1 |
| 20260508081534 | 33 | 155 | 1.0 | 4.0 | 0.00 | 0.07 | 0.00 | 97 | 1011.0 |
| 20260508080524 | 33 | 314 | 1.0 | 4.0 | 0.00 | 0.07 | 0.00 | 97 | 1010.8 |
| 20260508075615 | 33 | 193 | 1.0 | 4.0 | 0.00 | 0.07 | 0.00 | 97 | 1010.8 |
| 20260508074605 | 33 | 129 | 1.0 | 4.0 | 0.00 | 0.07 | 0.00 | 96 | 1010.8 |
| 20260508073555 | 33 | 182 | 3.0 | 6.0 | 0.00 | 0.07 | 0.00 | 96 | 1010.9 |
| 20260508072545 | 33 | 190 | 2.0 | 4.0 | 0.00 | 0.07 | 0.00 | 97 | 1010.9 |
| 20260508071535 | 33 | 174 | 3.0 | 4.0 | 0.00 | 0.07 | 0.00 | 97 | 1010.8 |
| 20260508070525 | 33 | 171 | 2.0 | 5.0 | 0.00 | 0.07 | 0.00 | 97 | 1010.7 |
| 20260508065636 | 34 | 150 | 0.0 | 3.0 | 0.00 | 0.07 | 0.00 | 96 | 1010.9 |
| 20260508064605 | 34 | 0.0 | 0.0 | 0.00 | 0.07 | 0.00 | 96 | 1010.7 | |
| 20260508063615 | 34 | 0.0 | 0.0 | 0.00 | 0.07 | 0.00 | 95 | 1010.9 | |
| 20260508062545 | 34 | 0.0 | 2.0 | 0.00 | 0.07 | 0.00 | 95 | 1011.0 | |
| 20260508061535 | 34 | 0.0 | 1.0 | 0.00 | 0.07 | 0.00 | 95 | 1011.2 | |
| 20260508060526 | 34 | 0.0 | 1.0 | 0.00 | 0.07 | 0.00 | 95 | 1011.1 | |
| 20260508055516 | 34 | 0.0 | 0.0 | 0.00 | 0.07 | 0.00 | 95 | 1011.0 | |
| 20260508054610 | 35 | 0.0 | 1.0 | 0.00 | 0.07 | 0.00 | 95 | 1010.9 | |
| 20260508053557 | 35 | 0.0 | 1.0 | 0.00 | 0.07 | 0.00 | 95 | 1011.0 | |
| 20260508052607 | 35 | 0.0 | 1.0 | 0.00 | 0.07 | 0.00 | 95 | 1011.0 | |
| 20260508051537 | 35 | 0.0 | 0.0 | 0.00 | 0.07 | 0.00 | 95 | 1011.0 | |
| 20260508050607 | 35 | 141 | 0.0 | 2.0 | 0.00 | 0.07 | 0.00 | 95 | 1011.0 |
| 20260508045517 | 36 | 48 | 0.0 | 2.0 | 0.00 | 0.07 | 0.00 | 95 | 1010.9 |
| 20260508044608 | 36 | 0.0 | 1.0 | 0.00 | 0.07 | 0.00 | 95 | 1010.9 | |
| 20260508043558 | 36 | 205 | 1.0 | 2.0 | 0.00 | 0.07 | 0.00 | 95 | 1010.7 |